sensor_id;sensor_type;location;lat;lon;timestamp;P1;durP1;ratioP1;P2;durP2;ratioP2
34200;SDS011;20469;55.638;37.670;2022-09-27T00:01:04;8.43;;;4.57;;
34200;SDS011;20469;55.638;37.670;2022-09-27T00:03:34;9.65;;;5.15;;
34200;SDS011;20469;55.638;37.670;2022-09-27T00:06:05;12.18;;;7.13;;
34200;SDS011;20469;55.638;37.670;2022-09-27T00:08:34;12.65;;;7.72;;
34200;SDS011;20469;55.638;37.670;2022-09-27T00:11:04;11.82;;;6.95;;
34200;SDS011;20469;55.638;37.670;2022-09-27T00:13:34;11.87;;;7.10;;
34200;SDS011;20469;55.638;37.670;2022-09-27T00:16:02;10.63;;;6.22;;
34200;SDS011;20469;55.638;37.670;2022-09-27T00:18:32;10.15;;;5.57;;
34200;SDS011;20469;55.638;37.670;2022-09-27T00:21:09;10.98;;;6.00;;
34200;SDS011;20469;55.638;37.670;2022-09-27T00:23:38;10.95;;;6.57;;
34200;SDS011;20469;55.638;37.670;2022-09-27T00:26:07;7.45;;;5.60;;
34200;SDS011;20469;55.638;37.670;2022-09-27T00:28:37;8.15;;;5.32;;
34200;SDS011;20469;55.638;37.670;2022-09-27T00:31:09;8.40;;;5.63;;
34200;SDS011;20469;55.638;37.670;2022-09-27T00:33:48;11.02;;;5.90;;
34200;SDS011;20469;55.638;37.670;2022-09-27T00:36:18;11.77;;;5.82;;
34200;SDS011;20469;55.638;37.670;2022-09-27T00:38:47;9.95;;;5.30;;
34200;SDS011;20469;55.638;37.670;2022-09-27T00:41:18;8.18;;;5.75;;
34200;SDS011;20469;55.638;37.670;2022-09-27T00:43:49;7.78;;;5.25;;
34200;SDS011;20469;55.638;37.670;2022-09-27T00:46:25;11.02;;;5.60;;
34200;SDS011;20469;55.638;37.670;2022-09-27T00:49:00;12.32;;;5.75;;
34200;SDS011;20469;55.638;37.670;2022-09-27T00:51:52;11.15;;;6.22;;
34200;SDS011;20469;55.638;37.670;2022-09-27T00:54:24;10.35;;;5.20;;
34200;SDS011;20469;55.638;37.670;2022-09-27T00:56:54;9.43;;;5.53;;
34200;SDS011;20469;55.638;37.670;2022-09-27T00:59:24;7.65;;;5.20;;
34200;SDS011;20469;55.638;37.670;2022-09-27T01:01:55;11.98;;;6.20;;
34200;SDS011;20469;55.638;37.670;2022-09-27T01:04:23;10.93;;;6.53;;
34200;SDS011;20469;55.638;37.670;2022-09-27T01:06:54;13.45;;;6.40;;
34200;SDS011;20469;55.638;37.670;2022-09-27T01:09:21;9.88;;;5.88;;
34200;SDS011;20469;55.638;37.670;2022-09-27T01:11:52;14.05;;;6.03;;
34200;SDS011;20469;55.638;37.670;2022-09-27T01:14:40;16.10;;;6.18;;
34200;SDS011;20469;55.638;37.670;2022-09-27T01:17:27;14.82;;;6.53;;
34200;SDS011;20469;55.638;37.670;2022-09-27T01:20:14;14.73;;;5.72;;
34200;SDS011;20469;55.638;37.670;2022-09-27T01:23:10;10.50;;;6.05;;
34200;SDS011;20469;55.638;37.670;2022-09-27T01:29:06;9.65;;;5.75;;
34200;SDS011;20469;55.638;37.670;2022-09-27T01:31:49;10.45;;;5.60;;
34200;SDS011;20469;55.638;37.670;2022-09-27T01:34:42;12.55;;;5.95;;
34200;SDS011;20469;55.638;37.670;2022-09-27T01:37:23;13.57;;;5.43;;
34200;SDS011;20469;55.638;37.670;2022-09-27T01:40:13;9.07;;;5.78;;
34200;SDS011;20469;55.638;37.670;2022-09-27T01:42:56;12.57;;;6.50;;
34200;SDS011;20469;55.638;37.670;2022-09-27T01:45:42;9.95;;;5.68;;
34200;SDS011;20469;55.638;37.670;2022-09-27T01:48:19;9.63;;;5.47;;
34200;SDS011;20469;55.638;37.670;2022-09-27T01:50:52;8.85;;;5.63;;
34200;SDS011;20469;55.638;37.670;2022-09-27T01:53:37;12.10;;;7.43;;
34200;SDS011;20469;55.638;37.670;2022-09-27T01:56:11;13.48;;;7.63;;
34200;SDS011;20469;55.638;37.670;2022-09-27T01:58:59;14.98;;;9.15;;
34200;SDS011;20469;55.638;37.670;2022-09-27T02:01:43;16.45;;;11.75;;
34200;SDS011;20469;55.638;37.670;2022-09-27T02:04:15;19.42;;;14.88;;
34200;SDS011;20469;55.638;37.670;2022-09-27T02:06:49;21.23;;;17.42;;
34200;SDS011;20469;55.638;37.670;2022-09-27T02:09:23;18.80;;;14.90;;
34200;SDS011;20469;55.638;37.670;2022-09-27T02:11:58;24.92;;;18.55;;
34200;SDS011;20469;55.638;37.670;2022-09-27T02:14:34;20.63;;;16.23;;
34200;SDS011;20469;55.638;37.670;2022-09-27T02:17:10;15.85;;;11.57;;
34200;SDS011;20469;55.638;37.670;2022-09-27T02:20:11;17.40;;;13.98;;
34200;SDS011;20469;55.638;37.670;2022-09-27T02:22:53;26.33;;;20.02;;
34200;SDS011;20469;55.638;37.670;2022-09-27T02:25:46;28.67;;;21.23;;
34200;SDS011;20469;55.638;37.670;2022-09-27T02:28:30;27.08;;;20.95;;
34200;SDS011;20469;55.638;37.670;2022-09-27T02:31:01;30.30;;;21.88;;
34200;SDS011;20469;55.638;37.670;2022-09-27T02:33:30;28.35;;;19.48;;
34200;SDS011;20469;55.638;37.670;2022-09-27T02:36:05;24.23;;;20.20;;
34200;SDS011;20469;55.638;37.670;2022-09-27T02:38:35;24.17;;;19.48;;
34200;SDS011;20469;55.638;37.670;2022-09-27T02:41:03;24.25;;;20.63;;
34200;SDS011;20469;55.638;37.670;2022-09-27T02:43:31;23.75;;;19.75;;
34200;SDS011;20469;55.638;37.670;2022-09-27T02:46:13;22.27;;;16.92;;
34200;SDS011;20469;55.638;37.670;2022-09-27T02:57:40;21.02;;;16.90;;
34200;SDS011;20469;55.638;37.670;2022-09-27T03:00:22;24.63;;;16.73;;
34200;SDS011;20469;55.638;37.670;2022-09-27T03:03:02;19.65;;;12.93;;
34200;SDS011;20469;55.638;37.670;2022-09-27T03:05:42;17.92;;;16.00;;
34200;SDS011;20469;55.638;37.670;2022-09-27T03:08:15;18.63;;;15.38;;
34200;SDS011;20469;55.638;37.670;2022-09-27T03:10:43;17.90;;;12.15;;
34200;SDS011;20469;55.638;37.670;2022-09-27T03:13:11;16.90;;;11.43;;
34200;SDS011;20469;55.638;37.670;2022-09-27T03:15:39;20.17;;;11.25;;
34200;SDS011;20469;55.638;37.670;2022-09-27T03:18:07;17.02;;;11.20;;
34200;SDS011;20469;55.638;37.670;2022-09-27T03:20:34;14.90;;;9.02;;
34200;SDS011;20469;55.638;37.670;2022-09-27T03:23:02;11.80;;;8.52;;
34200;SDS011;20469;55.638;37.670;2022-09-27T03:25:30;14.43;;;10.00;;
34200;SDS011;20469;55.638;37.670;2022-09-27T03:27:57;14.95;;;10.18;;
34200;SDS011;20469;55.638;37.670;2022-09-27T03:30:25;13.77;;;10.75;;
34200;SDS011;20469;55.638;37.670;2022-09-27T03:32:52;15.68;;;10.80;;
34200;SDS011;20469;55.638;37.670;2022-09-27T03:35:20;16.63;;;10.68;;
34200;SDS011;20469;55.638;37.670;2022-09-27T03:37:48;16.27;;;10.23;;
34200;SDS011;20469;55.638;37.670;2022-09-27T03:40:15;16.83;;;10.65;;
34200;SDS011;20469;55.638;37.670;2022-09-27T03:42:43;16.95;;;10.02;;
34200;SDS011;20469;55.638;37.670;2022-09-27T03:45:15;13.65;;;9.55;;
34200;SDS011;20469;55.638;37.670;2022-09-27T03:47:44;19.00;;;10.50;;
34200;SDS011;20469;55.638;37.670;2022-09-27T03:50:11;13.93;;;9.90;;
34200;SDS011;20469;55.638;37.670;2022-09-27T03:52:41;19.85;;;10.98;;
34200;SDS011;20469;55.638;37.670;2022-09-27T03:55:10;15.57;;;10.38;;
34200;SDS011;20469;55.638;37.670;2022-09-27T03:57:39;19.83;;;10.30;;
34200;SDS011;20469;55.638;37.670;2022-09-27T04:00:11;14.85;;;10.98;;
34200;SDS011;20469;55.638;37.670;2022-09-27T04:02:40;16.55;;;10.48;;
34200;SDS011;20469;55.638;37.670;2022-09-27T04:05:08;16.23;;;10.27;;
34200;SDS011;20469;55.638;37.670;2022-09-27T04:07:36;12.93;;;10.38;;
34200;SDS011;20469;55.638;37.670;2022-09-27T04:10:05;18.33;;;10.88;;
34200;SDS011;20469;55.638;37.670;2022-09-27T04:12:32;16.20;;;9.85;;
34200;SDS011;20469;55.638;37.670;2022-09-27T04:15:03;13.57;;;9.52;;
34200;SDS011;20469;55.638;37.670;2022-09-27T04:17:31;17.88;;;9.43;;
34200;SDS011;20469;55.638;37.670;2022-09-27T04:20:00;16.67;;;8.80;;
34200;SDS011;20469;55.638;37.670;2022-09-27T04:22:29;16.08;;;8.98;;
34200;SDS011;20469;55.638;37.670;2022-09-27T04:24:57;17.50;;;9.50;;
34200;SDS011;20469;55.638;37.670;2022-09-27T04:27:24;15.10;;;9.77;;
34200;SDS011;20469;55.638;37.670;2022-09-27T04:29:52;16.55;;;10.73;;
34200;SDS011;20469;55.638;37.670;2022-09-27T04:32:19;15.77;;;10.25;;
34200;SDS011;20469;55.638;37.670;2022-09-27T04:34:47;13.90;;;9.88;;
34200;SDS011;20469;55.638;37.670;2022-09-27T04:39:58;12.70;;;7.63;;
34200;SDS011;20469;55.638;37.670;2022-09-27T04:42:26;10.75;;;7.93;;
34200;SDS011;20469;55.638;37.670;2022-09-27T04:44:54;10.60;;;6.82;;
34200;SDS011;20469;55.638;37.670;2022-09-27T04:47:22;10.60;;;6.90;;
34200;SDS011;20469;55.638;37.670;2022-09-27T04:49:49;11.43;;;6.82;;
34200;SDS011;20469;55.638;37.670;2022-09-27T04:52:17;8.85;;;6.20;;
34200;SDS011;20469;55.638;37.670;2022-09-27T04:54:44;8.98;;;6.00;;
34200;SDS011;20469;55.638;37.670;2022-09-27T04:57:12;13.25;;;7.50;;
34200;SDS011;20469;55.638;37.670;2022-09-27T04:59:40;9.02;;;6.22;;
34200;SDS011;20469;55.638;37.670;2022-09-27T05:02:08;10.20;;;6.15;;
34200;SDS011;20469;55.638;37.670;2022-09-27T05:04:36;11.73;;;6.53;;
34200;SDS011;20469;55.638;37.670;2022-09-27T05:07:04;10.98;;;5.93;;
34200;SDS011;20469;55.638;37.670;2022-09-27T05:09:32;11.35;;;6.32;;
34200;SDS011;20469;55.638;37.670;2022-09-27T05:12:00;9.45;;;6.03;;
34200;SDS011;20469;55.638;37.670;2022-09-27T05:14:27;6.95;;;4.93;;
34200;SDS011;20469;55.638;37.670;2022-09-27T05:16:55;5.85;;;5.20;;
34200;SDS011;20469;55.638;37.670;2022-09-27T05:19:23;7.65;;;5.20;;
34200;SDS011;20469;55.638;37.670;2022-09-27T05:21:55;6.82;;;5.53;;
34200;SDS011;20469;55.638;37.670;2022-09-27T05:24:23;6.90;;;4.82;;
34200;SDS011;20469;55.638;37.670;2022-09-27T05:26:53;7.60;;;4.88;;
34200;SDS011;20469;55.638;37.670;2022-09-27T05:29:21;10.18;;;5.75;;
34200;SDS011;20469;55.638;37.670;2022-09-27T05:31:48;6.95;;;4.40;;
34200;SDS011;20469;55.638;37.670;2022-09-27T05:34:16;6.30;;;4.18;;
34200;SDS011;20469;55.638;37.670;2022-09-27T05:36:46;7.53;;;5.72;;
34200;SDS011;20469;55.638;37.670;2022-09-27T05:39:14;6.47;;;5.10;;
34200;SDS011;20469;55.638;37.670;2022-09-27T05:41:43;5.82;;;4.18;;
34200;SDS011;20469;55.638;37.670;2022-09-27T05:44:12;6.50;;;4.63;;
34200;SDS011;20469;55.638;37.670;2022-09-27T05:46:41;7.00;;;3.90;;
34200;SDS011;20469;55.638;37.670;2022-09-27T05:49:09;6.10;;;4.50;;
34200;SDS011;20469;55.638;37.670;2022-09-27T05:51:37;6.70;;;3.55;;
34200;SDS011;20469;55.638;37.670;2022-09-27T05:54:04;9.35;;;4.45;;
34200;SDS011;20469;55.638;37.670;2022-09-27T05:56:34;8.80;;;4.90;;
34200;SDS011;20469;55.638;37.670;2022-09-27T05:59:02;7.25;;;4.70;;
34200;SDS011;20469;55.638;37.670;2022-09-27T06:01:30;7.90;;;4.85;;
34200;SDS011;20469;55.638;37.670;2022-09-27T06:03:57;9.00;;;4.65;;
34200;SDS011;20469;55.638;37.670;2022-09-27T06:06:25;7.15;;;4.28;;
34200;SDS011;20469;55.638;37.670;2022-09-27T06:08:53;7.05;;;4.38;;
34200;SDS011;20469;55.638;37.670;2022-09-27T06:11:20;6.43;;;3.83;;
34200;SDS011;20469;55.638;37.670;2022-09-27T06:13:48;4.75;;;3.60;;
34200;SDS011;20469;55.638;37.670;2022-09-27T06:16:16;6.75;;;4.05;;
34200;SDS011;20469;55.638;37.670;2022-09-27T06:18:43;8.90;;;3.55;;
34200;SDS011;20469;55.638;37.670;2022-09-27T06:21:11;5.40;;;3.50;;
34200;SDS011;20469;55.638;37.670;2022-09-27T06:23:39;5.35;;;3.22;;
34200;SDS011;20469;55.638;37.670;2022-09-27T06:26:08;6.28;;;3.30;;
34200;SDS011;20469;55.638;37.670;2022-09-27T06:28:36;5.60;;;3.85;;
34200;SDS011;20469;55.638;37.670;2022-09-27T06:31:05;5.07;;;3.90;;
34200;SDS011;20469;55.638;37.670;2022-09-27T06:33:35;6.57;;;3.50;;
34200;SDS011;20469;55.638;37.670;2022-09-27T06:36:05;6.97;;;3.72;;
34200;SDS011;20469;55.638;37.670;2022-09-27T06:38:33;8.18;;;4.20;;
34200;SDS011;20469;55.638;37.670;2022-09-27T06:41:02;5.95;;;3.47;;
34200;SDS011;20469;55.638;37.670;2022-09-27T06:43:32;6.60;;;4.50;;
34200;SDS011;20469;55.638;37.670;2022-09-27T06:46:00;3.88;;;3.08;;
34200;SDS011;20469;55.638;37.670;2022-09-27T06:48:32;4.53;;;2.83;;
34200;SDS011;20469;55.638;37.670;2022-09-27T06:51:03;3.63;;;2.70;;
34200;SDS011;20469;55.638;37.670;2022-09-27T06:53:31;5.32;;;3.90;;
34200;SDS011;20469;55.638;37.670;2022-09-27T06:55:59;7.32;;;3.60;;
34200;SDS011;20469;55.638;37.670;2022-09-27T06:58:28;5.00;;;3.83;;
34200;SDS011;20469;55.638;37.670;2022-09-27T07:01:10;8.85;;;3.80;;
34200;SDS011;20469;55.638;37.670;2022-09-27T07:03:38;5.20;;;3.53;;
34200;SDS011;20469;55.638;37.670;2022-09-27T07:06:17;9.55;;;4.72;;
34200;SDS011;20469;55.638;37.670;2022-09-27T07:08:49;7.22;;;4.00;;
34200;SDS011;20469;55.638;37.670;2022-09-27T07:11:18;6.53;;;3.45;;
34200;SDS011;20469;55.638;37.670;2022-09-27T07:13:51;5.72;;;3.72;;
34200;SDS011;20469;55.638;37.670;2022-09-27T07:16:23;5.68;;;3.78;;
34200;SDS011;20469;55.638;37.670;2022-09-27T07:18:51;6.93;;;3.50;;
34200;SDS011;20469;55.638;37.670;2022-09-27T07:21:19;5.15;;;3.70;;
34200;SDS011;20469;55.638;37.670;2022-09-27T07:23:47;5.93;;;2.90;;
34200;SDS011;20469;55.638;37.670;2022-09-27T07:26:14;6.68;;;3.47;;
34200;SDS011;20469;55.638;37.670;2022-09-27T07:28:42;4.70;;;2.70;;
34200;SDS011;20469;55.638;37.670;2022-09-27T07:31:11;5.47;;;2.95;;
34200;SDS011;20469;55.638;37.670;2022-09-27T07:33:39;4.18;;;3.03;;
34200;SDS011;20469;55.638;37.670;2022-09-27T07:36:10;4.45;;;3.10;;
34200;SDS011;20469;55.638;37.670;2022-09-27T07:38:39;6.55;;;3.80;;
34200;SDS011;20469;55.638;37.670;2022-09-27T07:41:08;3.97;;;3.28;;
34200;SDS011;20469;55.638;37.670;2022-09-27T07:43:41;5.13;;;2.90;;
34200;SDS011;20469;55.638;37.670;2022-09-27T07:46:11;7.03;;;3.20;;
34200;SDS011;20469;55.638;37.670;2022-09-27T07:48:40;6.30;;;3.63;;
34200;SDS011;20469;55.638;37.670;2022-09-27T07:51:08;4.70;;;3.00;;
34200;SDS011;20469;55.638;37.670;2022-09-27T07:53:37;5.38;;;3.00;;
34200;SDS011;20469;55.638;37.670;2022-09-27T07:56:06;4.72;;;2.80;;
34200;SDS011;20469;55.638;37.670;2022-09-27T07:58:33;6.30;;;2.83;;
34200;SDS011;20469;55.638;37.670;2022-09-27T08:01:01;4.75;;;2.70;;
34200;SDS011;20469;55.638;37.670;2022-09-27T08:03:28;3.67;;;2.55;;
34200;SDS011;20469;55.638;37.670;2022-09-27T08:06:00;2.58;;;2.30;;
34200;SDS011;20469;55.638;37.670;2022-09-27T08:10:57;5.07;;;2.58;;
34200;SDS011;20469;55.638;37.670;2022-09-27T08:13:25;4.78;;;2.50;;
34200;SDS011;20469;55.638;37.670;2022-09-27T08:15:52;3.75;;;2.33;;
34200;SDS011;20469;55.638;37.670;2022-09-27T08:18:20;2.42;;;1.58;;
34200;SDS011;20469;55.638;37.670;2022-09-27T08:20:47;5.22;;;2.10;;
34200;SDS011;20469;55.638;37.670;2022-09-27T08:23:15;4.07;;;1.90;;
34200;SDS011;20469;55.638;37.670;2022-09-27T08:25:42;1.60;;;1.50;;
34200;SDS011;20469;55.638;37.670;2022-09-27T08:28:10;3.42;;;1.50;;
34200;SDS011;20469;55.638;37.670;2022-09-27T08:30:37;4.10;;;1.83;;
34200;SDS011;20469;55.638;37.670;2022-09-27T08:33:05;2.17;;;1.73;;
34200;SDS011;20469;55.638;37.670;2022-09-27T08:35:33;2.05;;;1.30;;
34200;SDS011;20469;55.638;37.670;2022-09-27T08:38:01;2.53;;;1.60;;
34200;SDS011;20469;55.638;37.670;2022-09-27T08:40:37;1.70;;;1.60;;
34200;SDS011;20469;55.638;37.670;2022-09-27T08:46:21;3.97;;;1.77;;
34200;SDS011;20469;55.638;37.670;2022-09-27T08:49:09;3.67;;;2.10;;
34200;SDS011;20469;55.638;37.670;2022-09-27T08:51:51;3.38;;;1.88;;
34200;SDS011;20469;55.638;37.670;2022-09-27T08:54:22;5.32;;;2.38;;
34200;SDS011;20469;55.638;37.670;2022-09-27T08:56:57;4.32;;;2.60;;
34200;SDS011;20469;55.638;37.670;2022-09-27T08:59:40;4.63;;;2.97;;
34200;SDS011;20469;55.638;37.670;2022-09-27T09:02:19;6.07;;;3.45;;
34200;SDS011;20469;55.638;37.670;2022-09-27T09:04:52;3.53;;;3.22;;
34200;SDS011;20469;55.638;37.670;2022-09-27T09:10:29;5.25;;;3.35;;
34200;SDS011;20469;55.638;37.670;2022-09-27T09:13:36;3.08;;;2.78;;
34200;SDS011;20469;55.638;37.670;2022-09-27T09:19:14;9.18;;;2.83;;
34200;SDS011;20469;55.638;37.670;2022-09-27T09:22:02;5.40;;;3.20;;
34200;SDS011;20469;55.638;37.670;2022-09-27T09:24:57;2.92;;;2.15;;
34200;SDS011;20469;55.638;37.670;2022-09-27T09:27:49;3.00;;;1.45;;
34200;SDS011;20469;55.638;37.670;2022-09-27T09:30:40;2.88;;;2.58;;
34200;SDS011;20469;55.638;37.670;2022-09-27T09:33:23;2.80;;;2.22;;
34200;SDS011;20469;55.638;37.670;2022-09-27T09:35:56;3.45;;;1.83;;
34200;SDS011;20469;55.638;37.670;2022-09-27T09:38:33;5.22;;;2.35;;
34200;SDS011;20469;55.638;37.670;2022-09-27T09:41:17;3.00;;;2.70;;
34200;SDS011;20469;55.638;37.670;2022-09-27T09:43:55;5.05;;;2.50;;
34200;SDS011;20469;55.638;37.670;2022-09-27T09:46:30;4.40;;;2.63;;
34200;SDS011;20469;55.638;37.670;2022-09-27T09:49:17;4.00;;;2.75;;
34200;SDS011;20469;55.638;37.670;2022-09-27T09:51:51;5.05;;;2.95;;
34200;SDS011;20469;55.638;37.670;2022-09-27T09:54:25;4.70;;;2.88;;
34200;SDS011;20469;55.638;37.670;2022-09-27T09:57:00;8.75;;;3.20;;
34200;SDS011;20469;55.638;37.670;2022-09-27T09:59:36;5.80;;;3.10;;
34200;SDS011;20469;55.638;37.670;2022-09-27T10:02:16;3.78;;;2.80;;
34200;SDS011;20469;55.638;37.670;2022-09-27T10:04:56;5.63;;;3.15;;
34200;SDS011;20469;55.638;37.670;2022-09-27T10:07:33;4.88;;;2.83;;
34200;SDS011;20469;55.638;37.670;2022-09-27T10:12:34;4.50;;;2.70;;
34200;SDS011;20469;55.638;37.670;2022-09-27T10:15:05;5.07;;;2.95;;
34200;SDS011;20469;55.638;37.670;2022-09-27T10:17:43;5.00;;;2.63;;
34200;SDS011;20469;55.638;37.670;2022-09-27T10:23:10;4.00;;;2.30;;
34200;SDS011;20469;55.638;37.670;2022-09-27T10:25:49;3.22;;;2.35;;
34200;SDS011;20469;55.638;37.670;2022-09-27T10:28:29;3.67;;;2.20;;
34200;SDS011;20469;55.638;37.670;2022-09-27T10:31:04;3.90;;;1.80;;
34200;SDS011;20469;55.638;37.670;2022-09-27T10:33:36;1.90;;;1.70;;
34200;SDS011;20469;55.638;37.670;2022-09-27T10:36:24;2.72;;;2.08;;
34200;SDS011;20469;55.638;37.670;2022-09-27T10:39:00;2.75;;;1.67;;
34200;SDS011;20469;55.638;37.670;2022-09-27T10:41:31;3.22;;;1.88;;
34200;SDS011;20469;55.638;37.670;2022-09-27T10:46:50;3.40;;;1.58;;
34200;SDS011;20469;55.638;37.670;2022-09-27T10:49:28;2.80;;;1.77;;
34200;SDS011;20469;55.638;37.670;2022-09-27T10:52:04;3.42;;;1.90;;
34200;SDS011;20469;55.638;37.670;2022-09-27T10:54:43;3.08;;;1.83;;
34200;SDS011;20469;55.638;37.670;2022-09-27T10:57:23;2.38;;;1.67;;
34200;SDS011;20469;55.638;37.670;2022-09-27T10:59:57;2.10;;;1.90;;
34200;SDS011;20469;55.638;37.670;2022-09-27T11:02:31;2.60;;;2.10;;
34200;SDS011;20469;55.638;37.670;2022-09-27T11:05:07;4.95;;;1.83;;
34200;SDS011;20469;55.638;37.670;2022-09-27T11:07:47;2.20;;;1.85;;
34200;SDS011;20469;55.638;37.670;2022-09-27T11:10:22;6.22;;;2.20;;
34200;SDS011;20469;55.638;37.670;2022-09-27T11:13:09;2.53;;;1.80;;
34200;SDS011;20469;55.638;37.670;2022-09-27T11:15:50;3.78;;;1.70;;
34200;SDS011;20469;55.638;37.670;2022-09-27T11:18:38;1.77;;;1.67;;
34200;SDS011;20469;55.638;37.670;2022-09-27T11:21:30;2.42;;;1.60;;
34200;SDS011;20469;55.638;37.670;2022-09-27T11:27:21;3.05;;;1.60;;
34200;SDS011;20469;55.638;37.670;2022-09-27T11:30:13;1.88;;;1.77;;
34200;SDS011;20469;55.638;37.670;2022-09-27T11:38:40;3.28;;;1.85;;
34200;SDS011;20469;55.638;37.670;2022-09-27T11:41:31;8.40;;;2.22;;
34200;SDS011;20469;55.638;37.670;2022-09-27T11:44:23;3.75;;;1.50;;
34200;SDS011;20469;55.638;37.670;2022-09-27T11:47:10;3.85;;;1.30;;
34200;SDS011;20469;55.638;37.670;2022-09-27T11:50:02;2.50;;;1.63;;
34200;SDS011;20469;55.638;37.670;2022-09-27T11:52:57;2.22;;;1.65;;
34200;SDS011;20469;55.638;37.670;2022-09-27T11:58:50;3.15;;;1.50;;
34200;SDS011;20469;55.638;37.670;2022-09-27T12:01:44;5.07;;;1.50;;
34200;SDS011;20469;55.638;37.670;2022-09-27T12:07:23;3.05;;;1.60;;
34200;SDS011;20469;55.638;37.670;2022-09-27T12:10:03;2.80;;;1.83;;
34200;SDS011;20469;55.638;37.670;2022-09-27T12:12:36;2.85;;;2.60;;
34200;SDS011;20469;55.638;37.670;2022-09-27T12:15:13;4.10;;;2.13;;
34200;SDS011;20469;55.638;37.670;2022-09-27T12:17:48;5.05;;;2.03;;
34200;SDS011;20469;55.638;37.670;2022-09-27T12:20:20;2.28;;;1.90;;
34200;SDS011;20469;55.638;37.670;2022-09-27T12:22:54;3.50;;;2.42;;
34200;SDS011;20469;55.638;37.670;2022-09-27T12:25:28;3.08;;;2.70;;
34200;SDS011;20469;55.638;37.670;2022-09-27T12:28:04;5.25;;;2.78;;
34200;SDS011;20469;55.638;37.670;2022-09-27T12:33:48;4.90;;;3.28;;
34200;SDS011;20469;55.638;37.670;2022-09-27T12:36:35;5.68;;;3.28;;
34200;SDS011;20469;55.638;37.670;2022-09-27T12:42:00;6.50;;;3.80;;
34200;SDS011;20469;55.638;37.670;2022-09-27T12:44:36;6.28;;;4.10;;
34200;SDS011;20469;55.638;37.670;2022-09-27T12:47:09;7.43;;;4.10;;
34200;SDS011;20469;55.638;37.670;2022-09-27T12:50:00;11.02;;;4.78;;
34200;SDS011;20469;55.638;37.670;2022-09-27T12:52:38;8.82;;;4.05;;
34200;SDS011;20469;55.638;37.670;2022-09-27T12:58:19;8.02;;;4.00;;
34200;SDS011;20469;55.638;37.670;2022-09-27T13:03:58;5.13;;;3.63;;
34200;SDS011;20469;55.638;37.670;2022-09-27T13:06:56;5.63;;;3.10;;
34200;SDS011;20469;55.638;37.670;2022-09-27T13:09:40;10.38;;;3.70;;
34200;SDS011;20469;55.638;37.670;2022-09-27T13:12:25;9.35;;;3.40;;
34200;SDS011;20469;55.638;37.670;2022-09-27T13:15:04;5.38;;;3.00;;
34200;SDS011;20469;55.638;37.670;2022-09-27T13:17:49;5.63;;;2.80;;
34200;SDS011;20469;55.638;37.670;2022-09-27T13:26:20;3.60;;;3.00;;
34200;SDS011;20469;55.638;37.670;2022-09-27T13:32:00;6.53;;;3.83;;
34200;SDS011;20469;55.638;37.670;2022-09-27T13:34:42;4.13;;;2.75;;
34200;SDS011;20469;55.638;37.670;2022-09-27T13:37:33;4.93;;;3.33;;
34200;SDS011;20469;55.638;37.670;2022-09-27T13:40:22;5.57;;;3.30;;
34200;SDS011;20469;55.638;37.670;2022-09-27T13:43:09;4.18;;;2.75;;
34200;SDS011;20469;55.638;37.670;2022-09-27T13:45:59;3.72;;;3.17;;
34200;SDS011;20469;55.638;37.670;2022-09-27T13:48:38;7.00;;;3.28;;
34200;SDS011;20469;55.638;37.670;2022-09-27T14:00:22;5.78;;;3.30;;
34200;SDS011;20469;55.638;37.670;2022-09-27T14:03:12;4.95;;;2.90;;
34200;SDS011;20469;55.638;37.670;2022-09-27T14:06:05;6.63;;;3.38;;
34200;SDS011;20469;55.638;37.670;2022-09-27T14:11:29;3.15;;;2.50;;
34200;SDS011;20469;55.638;37.670;2022-09-27T14:14:06;4.95;;;2.10;;
34200;SDS011;20469;55.638;37.670;2022-09-27T14:16:45;6.60;;;2.33;;
34200;SDS011;20469;55.638;37.670;2022-09-27T14:19:17;6.40;;;2.20;;
34200;SDS011;20469;55.638;37.670;2022-09-27T14:21:53;3.35;;;2.20;;
34200;SDS011;20469;55.638;37.670;2022-09-27T14:24:24;5.57;;;3.00;;
34200;SDS011;20469;55.638;37.670;2022-09-27T14:29:51;7.05;;;2.38;;
34200;SDS011;20469;55.638;37.670;2022-09-27T14:32:31;5.43;;;2.97;;
34200;SDS011;20469;55.638;37.670;2022-09-27T14:35:13;2.85;;;2.10;;
34200;SDS011;20469;55.638;37.670;2022-09-27T14:38:04;5.50;;;2.78;;
34200;SDS011;20469;55.638;37.670;2022-09-27T14:41:01;6.40;;;2.88;;
34200;SDS011;20469;55.638;37.670;2022-09-27T14:43:35;5.55;;;3.13;;
34200;SDS011;20469;55.638;37.670;2022-09-27T14:49:10;6.57;;;3.35;;
34200;SDS011;20469;55.638;37.670;2022-09-27T14:51:52;5.15;;;2.90;;
34200;SDS011;20469;55.638;37.670;2022-09-27T14:54:27;6.78;;;3.17;;
34200;SDS011;20469;55.638;37.670;2022-09-27T14:56:59;4.80;;;2.83;;
34200;SDS011;20469;55.638;37.670;2022-09-27T14:59:32;6.85;;;3.88;;
34200;SDS011;20469;55.638;37.670;2022-09-27T15:02:10;7.80;;;2.70;;
34200;SDS011;20469;55.638;37.670;2022-09-27T15:04:46;7.32;;;3.45;;
34200;SDS011;20469;55.638;37.670;2022-09-27T15:07:17;5.82;;;3.20;;
34200;SDS011;20469;55.638;37.670;2022-09-27T15:09:48;6.32;;;2.97;;
34200;SDS011;20469;55.638;37.670;2022-09-27T15:12:20;5.95;;;3.00;;
34200;SDS011;20469;55.638;37.670;2022-09-27T15:14:52;7.95;;;3.22;;
34200;SDS011;20469;55.638;37.670;2022-09-27T15:17:25;7.75;;;3.38;;
34200;SDS011;20469;55.638;37.670;2022-09-27T15:19:56;4.80;;;2.70;;
34200;SDS011;20469;55.638;37.670;2022-09-27T15:25:18;7.78;;;3.00;;
34200;SDS011;20469;55.638;37.670;2022-09-27T15:27:51;6.50;;;3.55;;
34200;SDS011;20469;55.638;37.670;2022-09-27T15:30:26;6.07;;;3.60;;
34200;SDS011;20469;55.638;37.670;2022-09-27T15:32:59;6.60;;;3.75;;
34200;SDS011;20469;55.638;37.670;2022-09-27T15:35:28;6.50;;;3.63;;
34200;SDS011;20469;55.638;37.670;2022-09-27T15:40:56;7.35;;;4.05;;
34200;SDS011;20469;55.638;37.670;2022-09-27T15:43:30;7.60;;;4.10;;
34200;SDS011;20469;55.638;37.670;2022-09-27T15:46:04;10.73;;;4.28;;
34200;SDS011;20469;55.638;37.670;2022-09-27T15:51:52;7.15;;;3.60;;
34200;SDS011;20469;55.638;37.670;2022-09-27T15:54:23;8.67;;;3.83;;
34200;SDS011;20469;55.638;37.670;2022-09-27T15:56:57;6.43;;;3.95;;
34200;SDS011;20469;55.638;37.670;2022-09-27T15:59:33;7.53;;;3.35;;
34200;SDS011;20469;55.638;37.670;2022-09-27T16:02:05;9.55;;;3.20;;
34200;SDS011;20469;55.638;37.670;2022-09-27T16:04:42;6.07;;;3.60;;
34200;SDS011;20469;55.638;37.670;2022-09-27T16:07:11;7.78;;;3.90;;
34200;SDS011;20469;55.638;37.670;2022-09-27T16:09:41;10.27;;;4.20;;
34200;SDS011;20469;55.638;37.670;2022-09-27T16:12:11;7.65;;;3.70;;
34200;SDS011;20469;55.638;37.670;2022-09-27T16:14:39;5.93;;;3.88;;
34200;SDS011;20469;55.638;37.670;2022-09-27T16:17:08;7.68;;;4.03;;
34200;SDS011;20469;55.638;37.670;2022-09-27T16:19:36;6.93;;;3.35;;
34200;SDS011;20469;55.638;37.670;2022-09-27T16:22:05;8.07;;;3.88;;
34200;SDS011;20469;55.638;37.670;2022-09-27T16:24:33;6.07;;;3.55;;
34200;SDS011;20469;55.638;37.670;2022-09-27T16:27:03;6.75;;;2.90;;
34200;SDS011;20469;55.638;37.670;2022-09-27T16:29:34;8.45;;;3.35;;
34200;SDS011;20469;55.638;37.670;2022-09-27T16:32:09;5.50;;;3.53;;
34200;SDS011;20469;55.638;37.670;2022-09-27T16:37:13;5.72;;;3.00;;
34200;SDS011;20469;55.638;37.670;2022-09-27T16:39:41;4.35;;;3.45;;
34200;SDS011;20469;55.638;37.670;2022-09-27T16:42:11;7.32;;;3.03;;
34200;SDS011;20469;55.638;37.670;2022-09-27T16:44:44;5.43;;;3.05;;
34200;SDS011;20469;55.638;37.670;2022-09-27T16:47:15;6.63;;;3.22;;
34200;SDS011;20469;55.638;37.670;2022-09-27T16:49:47;6.28;;;3.03;;